createdAt,value
2018-02-12T00:00:56.770Z,995.15
2018-02-12T00:01:56.738Z,995.19
2018-02-12T00:02:56.709Z,995.19
2018-02-12T00:03:56.679Z,995.25
2018-02-12T00:04:56.646Z,995.18
2018-02-12T00:05:56.615Z,995.23
2018-02-12T00:06:56.586Z,995.24
2018-02-12T00:07:56.555Z,995.27
2018-02-12T00:08:56.524Z,995.28
2018-02-12T00:09:56.491Z,995.32
2018-02-12T00:10:56.461Z,995.29
2018-02-12T00:11:56.430Z,995.33
2018-02-12T00:12:56.398Z,995.33
2018-02-12T00:13:56.368Z,995.32
2018-02-12T00:14:56.340Z,995.39
2018-02-12T00:15:56.308Z,995.37
2018-02-12T00:16:56.275Z,995.41
2018-02-12T00:17:56.245Z,995.34
2018-02-12T00:18:56.216Z,995.38
2018-02-12T00:19:56.184Z,995.39
2018-02-12T00:20:56.153Z,995.42
2018-02-12T00:21:56.122Z,995.42
2018-02-12T00:22:56.091Z,995.42
2018-02-12T00:23:56.060Z,995.41
2018-02-12T00:24:56.030Z,995.45
2018-02-12T00:25:55.999Z,995.42
2018-02-12T00:26:55.967Z,995.38
2018-02-12T00:27:55.942Z,995.42
2018-02-12T00:28:55.906Z,995.43
2018-02-12T00:29:55.874Z,995.47
2018-02-12T00:30:55.845Z,995.45
2018-02-12T00:31:55.813Z,995.47
2018-02-12T00:32:55.782Z,995.48
2018-02-12T00:33:55.753Z,995.49
2018-02-12T00:34:55.719Z,995.45
2018-02-12T00:35:55.689Z,995.56
2018-02-12T00:36:55.660Z,995.56
2018-02-12T00:37:55.629Z,995.64
2018-02-12T00:38:55.597Z,995.59
2018-02-12T00:39:55.567Z,995.55
2018-02-12T00:40:55.536Z,995.58
2018-02-12T00:41:55.505Z,995.58
2018-02-12T00:42:55.473Z,995.61
2018-02-12T00:43:55.444Z,995.57
2018-02-12T00:44:55.414Z,995.58
2018-02-12T00:45:55.381Z,995.64
2018-02-12T00:46:55.352Z,995.59
2018-02-12T00:47:55.321Z,995.6
2018-02-12T00:48:55.289Z,995.61
2018-02-12T00:49:55.258Z,995.64
2018-02-12T00:50:55.228Z,995.64
2018-02-12T00:51:55.198Z,995.65
2018-02-12T00:52:55.168Z,995.68
2018-02-12T00:53:55.136Z,995.71
2018-02-12T00:54:55.106Z,995.8
2018-02-12T00:55:55.076Z,995.73
2018-02-12T00:56:55.043Z,995.76
2018-02-12T00:57:55.013Z,995.74
2018-02-12T00:58:54.983Z,995.8
2018-02-12T00:59:54.951Z,995.78
2018-02-12T01:00:54.920Z,995.86
2018-02-12T01:01:54.891Z,995.85
2018-02-12T01:02:54.859Z,995.8
2018-02-12T01:03:54.830Z,995.9
2018-02-12T01:04:54.797Z,995.83
2018-02-12T01:05:54.767Z,995.88
2018-02-12T01:06:54.738Z,995.94
2018-02-12T01:07:54.707Z,995.97
2018-02-12T01:08:54.693Z,995.99
2018-02-12T01:09:54.645Z,996.11
2018-02-12T01:10:54.614Z,996.01
2018-02-12T01:11:54.583Z,996.05
2018-02-12T01:12:54.551Z,996.13
2018-02-12T01:13:54.522Z,996.07
2018-02-12T01:14:54.503Z,996.09
2018-02-12T01:15:54.460Z,996.03
2018-02-12T01:16:54.429Z,996
2018-02-12T01:17:54.397Z,996.02
2018-02-12T01:18:54.366Z,995.96
2018-02-12T01:19:54.334Z,995.9
2018-02-12T01:20:54.304Z,995.87
2018-02-12T01:21:54.274Z,995.88
2018-02-12T01:22:54.242Z,995.91
2018-02-12T01:23:54.212Z,995.92
2018-02-12T01:24:54.179Z,995.91
2018-02-12T01:25:54.150Z,995.91
2018-02-12T01:26:54.118Z,995.93
2018-02-12T01:27:54.087Z,995.97
2018-02-12T01:28:54.056Z,995.95
2018-02-12T01:29:54.023Z,996
2018-02-12T01:30:53.991Z,996
2018-02-12T01:31:53.960Z,995.99
2018-02-12T01:32:53.929Z,995.99
2018-02-12T01:33:53.897Z,996.02
2018-02-12T01:34:53.865Z,996.07
2018-02-12T01:35:53.835Z,996.04
2018-02-12T01:36:53.802Z,996.06
2018-02-12T01:37:53.771Z,996.06
2018-02-12T01:38:53.743Z,996.08
2018-02-12T01:39:53.711Z,996.06
2018-02-12T01:40:53.678Z,996.06
2018-02-12T01:41:53.646Z,996.07
2018-02-12T01:42:53.614Z,996.11
2018-02-12T01:43:53.584Z,996.15
2018-02-12T01:44:53.551Z,996.11
2018-02-12T01:45:53.521Z,996.08
2018-02-12T01:46:53.489Z,996.13
2018-02-12T01:47:53.456Z,996.11
2018-02-12T01:48:53.435Z,996.08
2018-02-12T01:49:53.395Z,996.12
2018-02-12T01:50:53.362Z,996.16
2018-02-12T01:51:53.331Z,996.13
2018-02-12T01:52:53.301Z,996.16
2018-02-12T01:53:53.270Z,996.2
2018-02-12T01:54:53.238Z,996.05
2018-02-12T01:55:53.206Z,996.14
2018-02-12T01:56:53.177Z,996.18
2018-02-12T01:57:53.143Z,996.21
2018-02-12T01:58:53.112Z,996.21
2018-02-12T01:59:53.080Z,996.27
2018-02-12T02:00:53.049Z,996.24
2018-02-12T02:01:53.019Z,996.22
2018-02-12T02:02:53.033Z,996.24
2018-02-12T02:03:52.955Z,996.31
2018-02-12T02:04:52.927Z,996.23
2018-02-12T02:05:52.893Z,996.23
2018-02-12T02:06:52.860Z,996.32
2018-02-12T02:07:52.830Z,996.28
2018-02-12T02:08:52.798Z,996.28
2018-02-12T02:09:52.767Z,996.35
2018-02-12T02:10:52.735Z,996.29
2018-02-12T02:11:52.706Z,996.29
2018-02-12T02:12:52.675Z,996.3
2018-02-12T02:13:52.642Z,996.34
2018-02-12T02:14:52.610Z,996.35
2018-02-12T02:15:52.579Z,996.3
2018-02-12T02:16:52.549Z,996.3
2018-02-12T02:17:52.517Z,996.4
2018-02-12T02:18:52.485Z,996.4
2018-02-12T02:19:52.454Z,996.41
2018-02-12T02:20:52.423Z,996.36
2018-02-12T02:21:52.391Z,996.43
2018-02-12T02:22:52.361Z,996.44
2018-02-12T02:23:52.329Z,996.47
2018-02-12T02:24:52.297Z,996.4
2018-02-12T02:25:52.267Z,996.45
2018-02-12T02:26:52.237Z,996.53
2018-02-12T02:27:52.204Z,996.4
2018-02-12T02:28:52.174Z,996.46
2018-02-12T02:29:52.142Z,996.5
2018-02-12T02:30:52.112Z,996.53
2018-02-12T02:31:52.079Z,996.48
2018-02-12T02:32:52.053Z,996.52
2018-02-12T02:33:52.019Z,996.54
2018-02-12T02:34:51.986Z,996.56
2018-02-12T02:35:51.956Z,996.56
2018-02-12T02:36:51.925Z,996.58
2018-02-12T02:37:51.894Z,996.59
2018-02-12T02:38:51.863Z,996.58
2018-02-12T02:39:51.831Z,996.48
2018-02-12T02:40:51.800Z,996.57
2018-02-12T02:41:51.769Z,996.51
2018-02-12T02:42:51.737Z,996.51
2018-02-12T02:43:51.706Z,996.52
2018-02-12T02:44:51.676Z,996.51
2018-02-12T02:45:51.647Z,996.44
2018-02-12T02:46:51.613Z,996.46
2018-02-12T02:47:51.582Z,996.42
2018-02-12T02:48:51.552Z,996.48
2018-02-12T02:49:51.520Z,996.52
2018-02-12T02:50:51.489Z,996.52
2018-02-12T02:51:51.458Z,996.47
2018-02-12T02:52:51.428Z,996.54
2018-02-12T02:53:51.394Z,996.58
2018-02-12T02:54:51.364Z,996.54
2018-02-12T02:55:51.333Z,996.59
2018-02-12T02:56:51.301Z,996.48
2018-02-12T02:57:51.271Z,996.61
2018-02-12T02:58:51.240Z,996.57
2018-02-12T02:59:51.208Z,996.61
2018-02-12T03:00:51.178Z,996.56
2018-02-12T03:01:51.187Z,996.55
2018-02-12T03:02:51.119Z,996.59
2018-02-12T03:03:51.084Z,996.57
2018-02-12T03:04:51.053Z,996.65
2018-02-12T03:05:51.022Z,996.65
2018-02-12T03:06:50.995Z,996.6
2018-02-12T03:07:50.960Z,996.57
2018-02-12T03:08:50.928Z,996.69
2018-02-12T03:09:50.897Z,996.66
2018-02-12T03:10:50.866Z,996.64
2018-02-12T03:11:50.835Z,996.71
2018-02-12T03:12:50.803Z,996.62
2018-02-12T03:13:50.772Z,996.65
2018-02-12T03:14:50.742Z,996.64
2018-02-12T03:15:50.710Z,996.68
2018-02-12T03:16:50.678Z,996.78
2018-02-12T03:17:50.649Z,996.69
2018-02-12T03:18:50.623Z,996.77
2018-02-12T03:19:50.586Z,996.78
2018-02-12T03:20:50.555Z,996.83
2018-02-12T03:21:50.526Z,996.86
2018-02-12T03:22:50.492Z,996.82
2018-02-12T03:23:50.460Z,996.82
2018-02-12T03:24:50.431Z,996.79
2018-02-12T03:25:50.403Z,996.85
2018-02-12T03:26:50.368Z,996.88
2018-02-12T03:27:50.338Z,996.89
2018-02-12T03:28:50.306Z,996.93
2018-02-12T03:29:50.276Z,996.9
2018-02-12T03:30:50.244Z,996.9
2018-02-12T03:31:50.212Z,996.94
2018-02-12T03:32:50.181Z,997
2018-02-12T03:33:50.155Z,997.01
2018-02-12T03:34:50.119Z,996.98
2018-02-12T03:35:50.089Z,997
2018-02-12T03:36:50.058Z,996.96
2018-02-12T03:37:50.025Z,996.95
2018-02-12T03:38:50.001Z,996.91
2018-02-12T03:39:49.964Z,996.96
2018-02-12T03:40:49.933Z,997.04
2018-02-12T03:41:49.901Z,997.02
2018-02-12T03:42:49.870Z,997.12
2018-02-12T03:43:49.839Z,997.07
2018-02-12T03:44:49.808Z,997.14
2018-02-12T03:45:49.777Z,997.09
2018-02-12T03:46:49.746Z,997.08
2018-02-12T03:47:49.715Z,997.09
2018-02-12T03:48:49.682Z,997.08
2018-02-12T03:49:49.653Z,997.07
2018-02-12T03:50:49.621Z,997.07
2018-02-12T03:51:49.590Z,997.06
2018-02-12T03:52:49.562Z,997.11
2018-02-12T03:53:49.528Z,997.14
2018-02-12T03:54:49.496Z,997.12
2018-02-12T03:55:49.465Z,997.16
2018-02-12T03:56:49.436Z,997.14
2018-02-12T03:57:49.404Z,997.16
2018-02-12T03:58:49.373Z,997.11
2018-02-12T03:59:49.342Z,997.18
2018-02-12T04:00:49.311Z,997.1
2018-02-12T04:01:49.279Z,997.2
2018-02-12T04:02:49.249Z,997.18
2018-02-12T04:03:49.217Z,997.17
2018-02-12T04:04:49.186Z,997.2
2018-02-12T04:05:49.156Z,997.25
2018-02-12T04:06:49.125Z,997.26
2018-02-12T04:07:49.096Z,997.29
2018-02-12T04:08:49.062Z,997.26
2018-02-12T04:09:49.032Z,997.27
2018-02-12T04:10:49.000Z,997.25
2018-02-12T04:11:48.969Z,997.27
2018-02-12T04:12:48.937Z,997.23
2018-02-12T04:13:48.907Z,997.27
2018-02-12T04:14:48.875Z,997.36
2018-02-12T04:15:48.845Z,997.29
2018-02-12T04:16:48.814Z,997.37
2018-02-12T04:17:48.781Z,997.42
2018-02-12T04:18:48.751Z,997.41
2018-02-12T04:19:48.721Z,997.35
2018-02-12T04:20:48.690Z,997.37
2018-02-12T04:21:48.660Z,997.41
2018-02-12T04:22:48.627Z,997.42
2018-02-12T04:23:48.595Z,997.38
2018-02-12T04:24:48.587Z,997.43
2018-02-12T04:25:48.533Z,997.39
2018-02-12T04:26:48.502Z,997.45
2018-02-12T04:27:48.473Z,997.51
2018-02-12T04:28:48.441Z,997.53
2018-02-12T04:29:48.410Z,997.54
2018-02-12T04:30:48.379Z,997.46
2018-02-12T04:31:48.347Z,997.52
2018-02-12T04:32:48.316Z,997.49
2018-02-12T04:33:48.284Z,997.48
2018-02-12T04:34:48.255Z,997.51
2018-02-12T04:35:48.224Z,997.48
2018-02-12T04:36:48.192Z,997.46
2018-02-12T04:37:48.165Z,997.53
2018-02-12T04:38:48.131Z,997.59
2018-02-12T04:39:48.100Z,997.56
2018-02-12T04:40:48.068Z,997.55
2018-02-12T04:41:48.039Z,997.6
2018-02-12T04:42:48.007Z,997.59
2018-02-12T04:43:47.976Z,997.53
2018-02-12T04:44:47.944Z,997.58
2018-02-12T04:45:47.913Z,997.59
2018-02-12T04:46:47.882Z,997.66
2018-02-12T04:47:47.851Z,997.63
2018-02-12T04:48:47.820Z,997.57
2018-02-12T04:49:47.789Z,997.69
2018-02-12T04:50:47.757Z,997.7
2018-02-12T04:51:47.727Z,997.64
2018-02-12T04:52:47.696Z,997.58
2018-02-12T04:53:47.666Z,997.6
2018-02-12T04:54:47.634Z,997.62
2018-02-12T04:55:47.603Z,997.63
2018-02-12T04:56:47.571Z,997.64
2018-02-12T04:57:47.541Z,997.62
2018-02-12T04:58:47.510Z,997.68
2018-02-12T04:59:47.478Z,997.66
2018-02-12T05:00:47.448Z,997.66
2018-02-12T05:01:47.416Z,997.67
2018-02-12T05:02:47.385Z,997.74
2018-02-12T05:03:47.354Z,997.68
2018-02-12T05:04:47.323Z,997.75
2018-02-12T05:05:47.291Z,997.82
2018-02-12T05:06:47.264Z,997.78
2018-02-12T05:07:47.233Z,997.77
2018-02-12T05:08:47.198Z,997.84
2018-02-12T05:09:47.168Z,997.8
2018-02-12T05:10:47.136Z,997.81
2018-02-12T05:11:47.106Z,997.87
2018-02-12T05:12:47.074Z,997.8
2018-02-12T05:13:47.288Z,997.87
2018-02-12T05:14:47.013Z,997.82
2018-02-12T05:15:46.981Z,997.89
2018-02-12T05:16:46.953Z,997.91
2018-02-12T05:17:46.918Z,997.93
2018-02-12T05:18:46.889Z,997.93
2018-02-12T05:19:46.856Z,998.09
2018-02-12T05:20:46.829Z,998.01
2018-02-12T05:21:46.796Z,998.05
2018-02-12T05:22:46.764Z,998.03
2018-02-12T05:23:46.732Z,998.06
2018-02-12T05:24:46.702Z,998.11
2018-02-12T05:25:46.671Z,998.05
2018-02-12T05:26:46.640Z,998.11
2018-02-12T05:27:46.608Z,998.09
2018-02-12T05:28:46.580Z,998.15
2018-02-12T05:29:46.547Z,998.13
2018-02-12T05:30:46.515Z,998.16
2018-02-12T05:31:46.482Z,998.17
2018-02-12T05:32:46.453Z,998.18
2018-02-12T05:33:46.423Z,998.18
2018-02-12T05:34:46.390Z,998.14
2018-02-12T05:35:46.360Z,998.26
2018-02-12T05:36:46.328Z,998.18
2018-02-12T05:37:46.297Z,998.22
2018-02-12T05:38:46.265Z,998.26
2018-02-12T05:39:46.237Z,998.27
2018-02-12T05:40:46.204Z,998.27
2018-02-12T05:41:46.174Z,998.05
2018-02-12T05:42:46.143Z,998.24
2018-02-12T05:43:46.113Z,998.29
2018-02-12T05:44:46.080Z,998.29
2018-02-12T05:45:46.050Z,998.33
2018-02-12T05:46:46.018Z,998.33
2018-02-12T05:47:45.987Z,998.36
2018-02-12T05:48:45.956Z,998.37
2018-02-12T05:49:45.924Z,998.38
2018-02-12T05:50:45.893Z,998.4
2018-02-12T05:51:45.864Z,998.37
2018-02-12T05:52:45.831Z,998.43
2018-02-12T05:53:45.801Z,998.5
2018-02-12T05:54:45.770Z,998.48
2018-02-12T05:55:45.739Z,998.56
2018-02-12T05:56:45.707Z,998.55
2018-02-12T05:57:45.676Z,998.44
2018-02-12T05:58:45.645Z,998.47
2018-02-12T05:59:45.615Z,998.53
2018-02-12T06:00:45.606Z,998.51
2018-02-12T06:01:45.553Z,998.54
2018-02-12T06:02:45.521Z,998.54
2018-02-12T06:03:45.490Z,998.63
2018-02-12T06:04:45.459Z,998.61
2018-02-12T06:05:45.428Z,998.6
2018-02-12T06:06:45.397Z,998.61
2018-02-12T06:07:45.365Z,998.59
2018-02-12T06:08:45.336Z,998.67
2018-02-12T06:09:45.304Z,998.62
2018-02-12T06:10:45.273Z,998.65
2018-02-12T06:11:45.242Z,998.65
2018-02-12T06:12:45.212Z,998.67
2018-02-12T06:13:45.180Z,998.57
2018-02-12T06:14:45.150Z,998.58
2018-02-12T06:15:45.119Z,998.62
2018-02-12T06:16:45.089Z,998.71
2018-02-12T06:17:45.058Z,998.74
2018-02-12T06:18:45.026Z,998.73
2018-02-12T06:19:44.995Z,998.76
2018-02-12T06:20:44.963Z,998.71
2018-02-12T06:21:44.933Z,998.64
2018-02-12T06:22:44.901Z,998.78
2018-02-12T06:23:44.896Z,998.77
2018-02-12T06:24:44.840Z,998.83
2018-02-12T06:25:44.809Z,998.88
2018-02-12T06:26:44.777Z,998.89
2018-02-12T06:27:44.746Z,998.89
2018-02-12T06:28:44.716Z,998.93
2018-02-12T06:29:44.684Z,998.96
2018-02-12T06:30:44.654Z,998.92
2018-02-12T06:31:44.622Z,998.99
2018-02-12T06:32:44.592Z,999.02
2018-02-12T06:33:44.559Z,998.99
2018-02-12T06:34:44.530Z,999.03
2018-02-12T06:35:44.499Z,999.04
2018-02-12T06:36:44.466Z,999.03
2018-02-12T06:37:44.435Z,999.12
2018-02-12T06:38:44.408Z,999.05
2018-02-12T06:39:44.375Z,999.21
2018-02-12T06:40:44.342Z,999.15
2018-02-12T06:41:44.313Z,999.1
2018-02-12T06:42:44.282Z,999.2
2018-02-12T06:43:44.250Z,999.17
2018-02-12T06:44:44.221Z,999.24
2018-02-12T06:45:44.188Z,999.24
2018-02-12T06:46:44.192Z,999.24
2018-02-12T06:47:44.126Z,999.3
2018-02-12T06:48:44.096Z,999.22
2018-02-12T06:49:44.064Z,999.25
2018-02-12T06:50:44.033Z,999.23
2018-02-12T06:51:44.002Z,999.18
2018-02-12T06:52:43.972Z,999.24
2018-02-12T06:53:43.940Z,999.23
2018-02-12T06:54:43.909Z,999.29
2018-02-12T06:55:43.878Z,999.28
2018-02-12T06:56:43.849Z,999.35
2018-02-12T06:57:43.816Z,999.34
2018-02-12T06:58:43.783Z,999.34
2018-02-12T06:59:43.754Z,999.4
2018-02-12T07:00:43.723Z,999.39
2018-02-12T07:01:43.692Z,999.45
2018-02-12T07:02:43.660Z,999.51
2018-02-12T07:03:43.629Z,999.46
2018-02-12T07:04:43.599Z,999.51
2018-02-12T07:05:43.566Z,999.51
2018-02-12T07:06:43.536Z,999.53
2018-02-12T07:07:43.510Z,999.54
2018-02-12T07:08:43.475Z,999.49
2018-02-12T07:09:43.443Z,999.53
2018-02-12T07:10:43.412Z,999.54
2018-02-12T07:11:43.380Z,999.55
2018-02-12T07:12:43.351Z,999.57
2018-02-12T07:13:43.318Z,999.61
2018-02-12T07:14:43.288Z,999.65
2018-02-12T07:15:43.259Z,999.65
2018-02-12T07:16:43.225Z,999.65
2018-02-12T07:17:43.195Z,999.72
2018-02-12T07:18:43.164Z,999.73
2018-02-12T07:19:43.134Z,999.7
2018-02-12T07:20:43.102Z,999.74
2018-02-12T07:21:43.076Z,999.75
2018-02-12T07:22:43.040Z,999.77
2018-02-12T07:23:43.010Z,999.8
2018-02-12T07:24:42.979Z,999.78
2018-02-12T07:25:42.975Z,999.79
2018-02-12T07:26:42.916Z,999.82
2018-02-12T07:27:42.884Z,999.87
2018-02-12T07:28:42.854Z,999.82
2018-02-12T07:29:42.824Z,999.82
2018-02-12T07:30:42.796Z,999.8
2018-02-12T07:31:42.761Z,999.85
2018-02-12T07:32:42.731Z,999.81
2018-02-12T07:33:42.701Z,999.81
2018-02-12T07:34:42.670Z,999.74
2018-02-12T07:35:42.637Z,999.78
2018-02-12T07:36:42.607Z,999.78
2018-02-12T07:37:42.577Z,999.8
2018-02-12T07:38:42.545Z,999.75
2018-02-12T07:39:42.515Z,999.8
2018-02-12T07:40:42.483Z,999.83
2018-02-12T07:41:42.454Z,999.81
2018-02-12T07:42:42.422Z,999.82
2018-02-12T07:43:42.391Z,999.88
2018-02-12T07:44:42.362Z,999.91
2018-02-12T07:45:42.330Z,999.84
2018-02-12T07:46:42.301Z,999.94
2018-02-12T07:47:42.274Z,999.86
2018-02-12T07:48:42.240Z,999.93
2018-02-12T07:49:42.208Z,999.95
2018-02-12T07:50:42.230Z,999.9
2018-02-12T07:51:42.154Z,999.95
2018-02-12T07:52:42.121Z,999.97
2018-02-12T07:53:42.086Z,1000
2018-02-12T07:54:42.057Z,999.99
2018-02-12T07:55:42.026Z,999.92
2018-02-12T07:56:41.995Z,999.96
2018-02-12T07:57:41.966Z,999.97
2018-02-12T07:58:41.934Z,999.99
2018-02-12T07:59:41.904Z,999.99
2018-02-12T08:00:41.878Z,1000
2018-02-12T08:01:41.846Z,1000.02
2018-02-12T08:02:41.815Z,1000.05
2018-02-12T08:03:41.784Z,1000.09
2018-02-12T08:04:41.754Z,1000.12
2018-02-12T08:05:41.724Z,1000.14
2018-02-12T08:06:41.697Z,1000.21
2018-02-12T08:07:41.662Z,1000.23
2018-02-12T08:08:41.733Z,1000.25
2018-02-12T08:09:41.633Z,1000.24
2018-02-12T08:10:41.573Z,1000.27
2018-02-12T08:11:41.543Z,1000.28
2018-02-12T08:12:41.513Z,1000.39
2018-02-12T08:13:41.483Z,1000.34
2018-02-12T08:14:41.453Z,1000.37
2018-02-12T08:15:41.421Z,1000.37
2018-02-12T08:16:41.392Z,1000.37
2018-02-12T08:17:41.362Z,1000.4
2018-02-12T08:18:41.433Z,1000.39
2018-02-12T08:19:41.302Z,1000.39
2018-02-12T08:20:41.272Z,1000.44
2018-02-12T08:21:41.241Z,1000.44
2018-02-12T08:22:41.210Z,1000.48
2018-02-12T08:23:41.180Z,1000.44
2018-02-12T08:24:41.150Z,1000.48
2018-02-12T08:25:41.120Z,1000.54
2018-02-12T08:26:41.095Z,1000.59
2018-02-12T08:27:41.060Z,1000.6
2018-02-12T08:28:41.031Z,1000.68
2018-02-12T08:29:40.999Z,1000.64
2018-02-12T08:30:40.973Z,1000.7
2018-02-12T08:31:40.940Z,1000.67
2018-02-12T08:32:40.911Z,1000.64
2018-02-12T08:33:40.953Z,1000.67
2018-02-12T08:34:40.849Z,1000.71
2018-02-12T08:35:40.819Z,1000.71
2018-02-12T08:36:40.789Z,1000.76
2018-02-12T08:37:40.759Z,1000.66
2018-02-12T08:38:40.729Z,1000.74
2018-02-12T08:39:40.701Z,1000.79
2018-02-12T08:40:40.671Z,1000.79
2018-02-12T08:41:40.640Z,1000.81
2018-02-12T08:42:40.610Z,1000.81
2018-02-12T08:43:40.580Z,1000.84
2018-02-12T08:44:40.550Z,1000.8
2018-02-12T08:45:40.525Z,1000.8
2018-02-12T08:46:40.491Z,1000.82
2018-02-12T08:47:40.460Z,1000.86
2018-02-12T08:48:40.431Z,1000.87
2018-02-12T08:49:40.401Z,1000.94
2018-02-12T08:50:40.372Z,1000.96
2018-02-12T08:51:40.340Z,1000.91
2018-02-12T08:52:40.312Z,1000.94
2018-02-12T08:53:40.282Z,1000.98
2018-02-12T08:54:40.252Z,1000.99
2018-02-12T08:55:40.222Z,1001.04
2018-02-12T08:56:40.192Z,1001.06
2018-02-12T08:57:40.163Z,1001.1
2018-02-12T08:58:40.133Z,1001.07
2018-02-12T08:59:40.105Z,1001.1
2018-02-12T09:00:40.073Z,1001.08
2018-02-12T09:01:40.043Z,1001.09
2018-02-12T09:02:40.015Z,1001.13
2018-02-12T09:03:39.983Z,1001.2
2018-02-12T09:04:39.953Z,1001.14
2018-02-12T09:05:39.924Z,1001.21
2018-02-12T09:06:39.898Z,1001.22
2018-02-12T09:07:39.862Z,1001.17
2018-02-12T09:08:39.834Z,1001.23
2018-02-12T09:09:39.804Z,1001.24
2018-02-12T09:10:39.772Z,1001.2
2018-02-12T09:11:39.742Z,1001.2
2018-02-12T09:12:39.712Z,1001.24
2018-02-12T09:13:39.683Z,1001.25
2018-02-12T09:14:39.653Z,1001.31
2018-02-12T09:15:39.622Z,1001.27
2018-02-12T09:16:39.617Z,1001.29
2018-02-12T09:17:39.560Z,1001.26
2018-02-12T09:18:39.532Z,1001.29
2018-02-12T09:19:39.502Z,1001.35
2018-02-12T09:20:39.472Z,1001.31
2018-02-12T09:21:39.442Z,1001.28
2018-02-12T09:22:39.413Z,1001.37
2018-02-12T09:23:39.383Z,1001.36
2018-02-12T09:24:39.351Z,1001.32
2018-02-12T09:25:39.322Z,1001.37
2018-02-12T09:26:39.293Z,1001.36
2018-02-12T09:27:39.273Z,1001.39
2018-02-12T09:28:39.231Z,1001.37
2018-02-12T09:29:39.203Z,1001.32
2018-02-12T09:30:39.173Z,1001.4
2018-02-12T09:31:39.153Z,1001.42
2018-02-12T09:32:39.112Z,1001.41
2018-02-12T09:33:39.081Z,1001.44
2018-02-12T09:34:39.052Z,1001.43
2018-02-12T09:35:39.022Z,1001.42
2018-02-12T09:36:38.992Z,1001.52
2018-02-12T09:37:38.965Z,1001.46
2018-02-12T09:38:38.937Z,1001.48
2018-02-12T09:39:38.902Z,1001.5
2018-02-12T09:40:38.872Z,1001.47
2018-02-12T09:41:38.861Z,1001.49
2018-02-12T09:42:38.814Z,1001.44
2018-02-12T09:43:38.785Z,1001.48
2018-02-12T09:44:38.756Z,1001.43
2018-02-12T09:45:38.756Z,1001.59
2018-02-12T09:46:38.696Z,1001.5
2018-02-12T09:47:38.667Z,1001.58
2018-02-12T09:48:38.639Z,1001.59
2018-02-12T09:49:38.610Z,1001.6
2018-02-12T09:50:38.772Z,1001.58
2018-02-12T09:51:38.706Z,1001.61
2018-02-12T09:52:38.524Z,1001.62
2018-02-12T09:53:38.493Z,1001.58
2018-02-12T09:54:38.464Z,1001.66
2018-02-12T09:55:38.441Z,1001.67
2018-02-12T09:56:38.408Z,1001.63
2018-02-12T09:57:38.394Z,1001.68
2018-02-12T09:58:38.349Z,1001.64
2018-02-12T09:59:38.321Z,1001.62
2018-02-12T10:00:38.294Z,1001.69
2018-02-12T10:01:38.263Z,1001.7
2018-02-12T10:02:38.237Z,1001.76
2018-02-12T10:03:38.209Z,1001.75
2018-02-12T10:04:38.178Z,1001.75
2018-02-12T10:05:38.150Z,1001.74
2018-02-12T10:06:38.122Z,1001.81
2018-02-12T10:07:38.093Z,1001.71
2018-02-12T10:08:38.066Z,1001.77
2018-02-12T10:09:38.036Z,1001.73
2018-02-12T10:10:38.009Z,1001.9
2018-02-12T10:11:37.981Z,1001.92
2018-02-12T10:12:37.954Z,1001.75
2018-02-12T10:13:37.923Z,1001.94
2018-02-12T10:14:37.900Z,1001.88
2018-02-12T10:15:37.869Z,1001.89
2018-02-12T10:16:37.839Z,1001.9
2018-02-12T10:17:37.813Z,1001.96
2018-02-12T10:18:37.784Z,1001.89
2018-02-12T10:19:37.755Z,1001.94
2018-02-12T10:20:37.730Z,1001.97
2018-02-12T10:21:37.701Z,1002.01
2018-02-12T10:22:37.671Z,1002.09
2018-02-12T10:23:37.642Z,1002.03
2018-02-12T10:24:37.615Z,1002.06
2018-02-12T10:25:37.586Z,1002.15
2018-02-12T10:26:37.559Z,1002.09
2018-02-12T10:27:37.529Z,1002.12
2018-02-12T10:28:37.504Z,1002.16
2018-02-12T10:29:37.474Z,1002.19
2018-02-12T10:30:37.445Z,1002.24
2018-02-12T10:31:37.417Z,1002.26
2018-02-12T10:32:37.391Z,1002.29
2018-02-12T10:33:37.363Z,1002.21
2018-02-12T10:34:37.334Z,1002.25
2018-02-12T10:35:37.305Z,1002.32
2018-02-12T10:36:37.278Z,1002.31
2018-02-12T10:37:37.253Z,1002.31
2018-02-12T10:38:37.222Z,1002.39
2018-02-12T10:39:37.212Z,1002.36
2018-02-12T10:40:37.367Z,1002.42
2018-02-12T10:41:37.136Z,1002.41
2018-02-12T10:42:37.199Z,1002.39
2018-02-12T10:43:37.080Z,1002.39
2018-02-12T10:44:37.077Z,1002.46
2018-02-12T10:45:37.023Z,1002.45
2018-02-12T10:46:36.997Z,1002.4
2018-02-12T10:47:36.967Z,1002.4
2018-02-12T10:48:36.937Z,1002.41
2018-02-12T10:49:36.910Z,1002.38
2018-02-12T10:50:36.881Z,1002.4
2018-02-12T10:51:36.856Z,1002.38
2018-02-12T10:52:36.826Z,1002.45
2018-02-12T10:53:36.797Z,1002.4
2018-02-12T10:54:36.770Z,1002.45
2018-02-12T10:55:36.742Z,1002.44
2018-02-12T10:56:36.715Z,1002.44
2018-02-12T10:57:36.688Z,1002.46
2018-02-12T10:58:36.662Z,1002.46
2018-02-12T10:59:36.630Z,1002.51
2018-02-12T11:00:36.613Z,1002.49
2018-02-12T11:01:36.577Z,1002.49
2018-02-12T11:02:36.562Z,1002.52
2018-02-12T11:03:36.521Z,1002.49
2018-02-12T11:04:36.494Z,1002.53
2018-02-12T11:05:36.467Z,1002.55
2018-02-12T11:06:36.438Z,1002.44
2018-02-12T11:07:36.411Z,1002.57
2018-02-12T11:08:36.385Z,1002.52
2018-02-12T11:09:36.358Z,1002.59
2018-02-12T11:10:36.331Z,1002.51
2018-02-12T11:11:36.304Z,1002.56
2018-02-12T11:12:36.278Z,1002.55
2018-02-12T11:13:36.251Z,1002.6
2018-02-12T11:14:36.223Z,1002.49
2018-02-12T11:15:36.195Z,1002.59
2018-02-12T11:16:36.174Z,1002.51
2018-02-12T11:17:36.141Z,1002.5
2018-02-12T11:18:36.114Z,1002.55
2018-02-12T11:19:36.088Z,1002.5
2018-02-12T11:20:36.062Z,1002.55
2018-02-12T11:21:36.033Z,1002.5
2018-02-12T11:22:36.005Z,1002.53
2018-02-12T11:23:35.979Z,1002.49
2018-02-12T11:24:35.951Z,1002.51
2018-02-12T11:25:35.925Z,1002.57
2018-02-12T11:26:35.897Z,1002.52
2018-02-12T11:27:35.868Z,1002.54
2018-02-12T11:28:35.840Z,1002.52
2018-02-12T11:29:35.812Z,1002.56
2018-02-12T11:30:35.784Z,1002.54
2018-02-12T11:31:35.758Z,1002.52
2018-02-12T11:32:35.730Z,1002.61
2018-02-12T11:33:35.701Z,1002.59
2018-02-12T11:34:35.717Z,1002.54
2018-02-12T11:35:35.652Z,1002.49
2018-02-12T11:36:35.618Z,1002.51
2018-02-12T11:37:35.590Z,1002.48
2018-02-12T11:38:35.562Z,1002.52
2018-02-12T11:39:35.533Z,1002.53
2018-02-12T11:40:35.505Z,1002.61
2018-02-12T11:41:35.478Z,1002.58
2018-02-12T11:42:35.453Z,1002.62
2018-02-12T11:43:35.422Z,1002.6
2018-02-12T11:44:35.396Z,1002.58
2018-02-12T11:45:35.371Z,1002.6
2018-02-12T11:46:35.340Z,1002.54
2018-02-12T11:47:35.311Z,1002.6
2018-02-12T11:48:35.284Z,1002.59
2018-02-12T11:49:35.258Z,1002.67
2018-02-12T11:50:35.230Z,1002.7
2018-02-12T11:51:35.203Z,1002.59
2018-02-12T11:52:35.188Z,1002.61
2018-02-12T11:53:35.147Z,1002.54
2018-02-12T11:54:35.120Z,1002.62
2018-02-12T11:55:35.092Z,1002.63
2018-02-12T11:56:35.065Z,1002.68
2018-02-12T11:57:35.037Z,1002.71
2018-02-12T11:58:35.010Z,1002.71
2018-02-12T11:59:34.984Z,1002.73
2018-02-12T12:00:34.955Z,1002.7
2018-02-12T12:01:34.927Z,1002.68
2018-02-12T12:02:34.900Z,1002.71
2018-02-12T12:03:34.875Z,1002.69
2018-02-12T12:04:34.847Z,1002.69
2018-02-12T12:05:34.820Z,1002.66
2018-02-12T12:06:34.795Z,1002.74
2018-02-12T12:07:34.766Z,1002.69
2018-02-12T12:08:34.740Z,1002.69
2018-02-12T12:09:34.712Z,1002.7
2018-02-12T12:10:34.686Z,1002.61
2018-02-12T12:11:34.660Z,1002.71
2018-02-12T12:12:34.632Z,1002.72
2018-02-12T12:13:34.605Z,1002.68
2018-02-12T12:14:34.580Z,1002.7
2018-02-12T12:15:34.554Z,1002.68
2018-02-12T12:16:34.526Z,1002.71
2018-02-12T12:17:34.509Z,1002.61
2018-02-12T12:18:34.473Z,1002.67
2018-02-12T12:19:34.446Z,1002.76
2018-02-12T12:20:34.428Z,1002.71
2018-02-12T12:21:34.394Z,1002.74
2018-02-12T12:22:34.367Z,1002.73
2018-02-12T12:23:34.339Z,1002.73